sensor_id;sensor_type;location;lat;lon;timestamp;temperature;humidity
15013;DHT22;7603;49.432;11.418;2023-12-20T00:01:22;4.50;99.90
15013;DHT22;7603;49.432;11.418;2023-12-20T00:03:47;4.50;99.90
15013;DHT22;7603;49.432;11.418;2023-12-20T00:06:13;4.50;99.90
15013;DHT22;7603;49.432;11.418;2023-12-20T00:08:39;4.50;99.90
15013;DHT22;7603;49.432;11.418;2023-12-20T00:11:05;4.50;99.90
15013;DHT22;7603;49.432;11.418;2023-12-20T00:13:31;4.50;99.90
15013;DHT22;7603;49.432;11.418;2023-12-20T00:15:56;4.50;99.90
15013;DHT22;7603;49.432;11.418;2023-12-20T00:18:22;4.50;99.90
15013;DHT22;7603;49.432;11.418;2023-12-20T00:20:48;4.40;99.90
15013;DHT22;7603;49.432;11.418;2023-12-20T00:23:13;4.40;99.90
15013;DHT22;7603;49.432;11.418;2023-12-20T00:25:39;4.40;99.90
15013;DHT22;7603;49.432;11.418;2023-12-20T00:28:05;4.40;99.90
15013;DHT22;7603;49.432;11.418;2023-12-20T00:30:31;4.50;99.90
15013;DHT22;7603;49.432;11.418;2023-12-20T00:32:57;4.50;99.90
15013;DHT22;7603;49.432;11.418;2023-12-20T00:35:22;4.40;99.90
15013;DHT22;7603;49.432;11.418;2023-12-20T00:37:48;4.40;99.90
15013;DHT22;7603;49.432;11.418;2023-12-20T00:40:14;4.40;99.90
15013;DHT22;7603;49.432;11.418;2023-12-20T00:42:39;4.40;99.90
15013;DHT22;7603;49.432;11.418;2023-12-20T00:45:05;4.40;99.90
15013;DHT22;7603;49.432;11.418;2023-12-20T00:47:31;4.40;99.90
15013;DHT22;7603;49.432;11.418;2023-12-20T00:49:57;4.30;99.90
15013;DHT22;7603;49.432;11.418;2023-12-20T00:52:24;4.40;99.90
15013;DHT22;7603;49.432;11.418;2023-12-20T00:54:49;4.40;99.90
15013;DHT22;7603;49.432;11.418;2023-12-20T00:57:15;4.40;99.90
15013;DHT22;7603;49.432;11.418;2023-12-20T00:59:41;4.40;99.90
15013;DHT22;7603;49.432;11.418;2023-12-20T01:02:07;4.30;99.90
15013;DHT22;7603;49.432;11.418;2023-12-20T01:04:32;4.30;99.90
15013;DHT22;7603;49.432;11.418;2023-12-20T01:06:58;4.40;99.90
15013;DHT22;7603;49.432;11.418;2023-12-20T01:09:24;4.40;99.90
15013;DHT22;7603;49.432;11.418;2023-12-20T01:11:52;4.40;99.90
15013;DHT22;7603;49.432;11.418;2023-12-20T01:14:18;4.40;99.90
15013;DHT22;7603;49.432;11.418;2023-12-20T01:16:43;4.50;99.90
15013;DHT22;7603;49.432;11.418;2023-12-20T01:19:09;4.50;99.90
15013;DHT22;7603;49.432;11.418;2023-12-20T01:21:34;4.50;99.90
15013;DHT22;7603;49.432;11.418;2023-12-20T01:24:00;4.50;99.90
15013;DHT22;7603;49.432;11.418;2023-12-20T01:26:26;4.60;99.90
15013;DHT22;7603;49.432;11.418;2023-12-20T01:28:51;4.60;99.90
15013;DHT22;7603;49.432;11.418;2023-12-20T01:31:17;4.60;99.90
15013;DHT22;7603;49.432;11.418;2023-12-20T01:33:42;4.60;99.90
15013;DHT22;7603;49.432;11.418;2023-12-20T01:36:08;4.60;99.90
15013;DHT22;7603;49.432;11.418;2023-12-20T01:38:34;4.70;99.90
15013;DHT22;7603;49.432;11.418;2023-12-20T01:40:59;4.70;99.90
15013;DHT22;7603;49.432;11.418;2023-12-20T01:43:25;4.70;99.90
15013;DHT22;7603;49.432;11.418;2023-12-20T01:45:51;4.80;99.90
15013;DHT22;7603;49.432;11.418;2023-12-20T01:48:18;4.80;99.90
15013;DHT22;7603;49.432;11.418;2023-12-20T01:50:45;4.80;99.90
15013;DHT22;7603;49.432;11.418;2023-12-20T01:53:12;4.80;99.90
15013;DHT22;7603;49.432;11.418;2023-12-20T01:55:41;4.80;99.90
15013;DHT22;7603;49.432;11.418;2023-12-20T01:58:09;4.70;99.90
15013;DHT22;7603;49.432;11.418;2023-12-20T02:00:36;4.70;99.90
15013;DHT22;7603;49.432;11.418;2023-12-20T02:03:02;4.70;99.90
15013;DHT22;7603;49.432;11.418;2023-12-20T02:05:30;4.70;99.90
15013;DHT22;7603;49.432;11.418;2023-12-20T02:07:55;4.60;99.90
15013;DHT22;7603;49.432;11.418;2023-12-20T02:10:21;4.60;99.90
15013;DHT22;7603;49.432;11.418;2023-12-20T02:12:47;4.60;99.90
15013;DHT22;7603;49.432;11.418;2023-12-20T02:15:13;4.60;99.90
15013;DHT22;7603;49.432;11.418;2023-12-20T02:17:39;4.60;99.90
15013;DHT22;7603;49.432;11.418;2023-12-20T02:20:05;4.60;99.90
15013;DHT22;7603;49.432;11.418;2023-12-20T02:22:31;4.60;99.90
15013;DHT22;7603;49.432;11.418;2023-12-20T02:24:57;4.60;99.90
15013;DHT22;7603;49.432;11.418;2023-12-20T02:27:23;4.60;99.90
15013;DHT22;7603;49.432;11.418;2023-12-20T02:29:50;4.60;99.90
15013;DHT22;7603;49.432;11.418;2023-12-20T02:32:19;4.60;99.90
15013;DHT22;7603;49.432;11.418;2023-12-20T02:34:49;4.60;99.90
15013;DHT22;7603;49.432;11.418;2023-12-20T02:37:15;4.60;99.90
15013;DHT22;7603;49.432;11.418;2023-12-20T02:39:40;4.50;99.90
15013;DHT22;7603;49.432;11.418;2023-12-20T02:42:06;4.50;99.90
15013;DHT22;7603;49.432;11.418;2023-12-20T02:44:32;4.50;99.90
15013;DHT22;7603;49.432;11.418;2023-12-20T02:46:58;4.50;99.90
15013;DHT22;7603;49.432;11.418;2023-12-20T02:49:23;4.50;99.90
15013;DHT22;7603;49.432;11.418;2023-12-20T02:51:49;4.50;99.90
15013;DHT22;7603;49.432;11.418;2023-12-20T02:54:15;4.50;99.90
15013;DHT22;7603;49.432;11.418;2023-12-20T02:56:40;4.40;99.90
15013;DHT22;7603;49.432;11.418;2023-12-20T02:59:06;4.30;99.90
15013;DHT22;7603;49.432;11.418;2023-12-20T03:01:34;4.20;99.90
15013;DHT22;7603;49.432;11.418;2023-12-20T03:04:00;4.20;99.90
15013;DHT22;7603;49.432;11.418;2023-12-20T03:06:26;4.10;99.90
15013;DHT22;7603;49.432;11.418;2023-12-20T03:08:52;4.10;99.90
15013;DHT22;7603;49.432;11.418;2023-12-20T03:11:18;4.00;99.90
15013;DHT22;7603;49.432;11.418;2023-12-20T03:13:44;4.00;99.90
15013;DHT22;7603;49.432;11.418;2023-12-20T03:16:13;3.90;99.90
15013;DHT22;7603;49.432;11.418;2023-12-20T03:18:41;3.90;99.90
15013;DHT22;7603;49.432;11.418;2023-12-20T03:21:07;3.90;99.90
15013;DHT22;7603;49.432;11.418;2023-12-20T03:23:32;3.90;99.90
15013;DHT22;7603;49.432;11.418;2023-12-20T03:25:59;3.90;99.90
15013;DHT22;7603;49.432;11.418;2023-12-20T03:28:26;3.80;99.90
15013;DHT22;7603;49.432;11.418;2023-12-20T03:30:52;3.70;99.90
15013;DHT22;7603;49.432;11.418;2023-12-20T03:33:17;3.70;99.90
15013;DHT22;7603;49.432;11.418;2023-12-20T03:35:43;3.70;99.90
15013;DHT22;7603;49.432;11.418;2023-12-20T03:38:09;3.60;99.90
15013;DHT22;7603;49.432;11.418;2023-12-20T03:40:34;3.60;99.90
15013;DHT22;7603;49.432;11.418;2023-12-20T03:43:00;3.60;99.90
15013;DHT22;7603;49.432;11.418;2023-12-20T03:45:26;3.60;99.90
15013;DHT22;7603;49.432;11.418;2023-12-20T03:47:52;3.60;99.90
15013;DHT22;7603;49.432;11.418;2023-12-20T03:50:23;3.60;99.90
15013;DHT22;7603;49.432;11.418;2023-12-20T03:52:49;3.60;99.90
15013;DHT22;7603;49.432;11.418;2023-12-20T03:55:15;3.60;99.90
15013;DHT22;7603;49.432;11.418;2023-12-20T03:57:41;3.60;99.90
15013;DHT22;7603;49.432;11.418;2023-12-20T04:00:07;3.60;99.90
15013;DHT22;7603;49.432;11.418;2023-12-20T04:02:37;3.50;99.90
15013;DHT22;7603;49.432;11.418;2023-12-20T04:05:03;3.50;99.90
15013;DHT22;7603;49.432;11.418;2023-12-20T04:07:28;3.50;99.90
15013;DHT22;7603;49.432;11.418;2023-12-20T04:09:55;3.50;99.90
15013;DHT22;7603;49.432;11.418;2023-12-20T04:12:20;3.40;99.90
15013;DHT22;7603;49.432;11.418;2023-12-20T04:14:46;3.40;99.90
15013;DHT22;7603;49.432;11.418;2023-12-20T04:17:12;3.40;99.90
15013;DHT22;7603;49.432;11.418;2023-12-20T04:19:37;3.40;99.90
15013;DHT22;7603;49.432;11.418;2023-12-20T04:22:03;3.40;99.90
15013;DHT22;7603;49.432;11.418;2023-12-20T04:24:29;3.40;99.90
15013;DHT22;7603;49.432;11.418;2023-12-20T04:26:54;3.30;99.90
15013;DHT22;7603;49.432;11.418;2023-12-20T04:29:20;3.30;99.90
15013;DHT22;7603;49.432;11.418;2023-12-20T04:31:45;3.40;99.90
15013;DHT22;7603;49.432;11.418;2023-12-20T04:34:11;3.40;99.90
15013;DHT22;7603;49.432;11.418;2023-12-20T04:36:37;3.30;99.90
15013;DHT22;7603;49.432;11.418;2023-12-20T04:39:02;3.40;99.90
15013;DHT22;7603;49.432;11.418;2023-12-20T04:41:28;3.40;99.90
15013;DHT22;7603;49.432;11.418;2023-12-20T04:43:54;3.40;99.90
15013;DHT22;7603;49.432;11.418;2023-12-20T04:46:19;3.40;99.90
15013;DHT22;7603;49.432;11.418;2023-12-20T04:48:45;3.40;99.90
15013;DHT22;7603;49.432;11.418;2023-12-20T04:51:11;3.40;99.90
15013;DHT22;7603;49.432;11.418;2023-12-20T04:53:36;3.40;99.90
15013;DHT22;7603;49.432;11.418;2023-12-20T04:56:02;3.40;99.90
15013;DHT22;7603;49.432;11.418;2023-12-20T04:58:28;3.30;99.90
15013;DHT22;7603;49.432;11.418;2023-12-20T05:00:53;3.40;99.90
15013;DHT22;7603;49.432;11.418;2023-12-20T05:03:19;3.40;99.90
15013;DHT22;7603;49.432;11.418;2023-12-20T05:05:45;3.30;99.90
15013;DHT22;7603;49.432;11.418;2023-12-20T05:08:10;3.30;99.90
15013;DHT22;7603;49.432;11.418;2023-12-20T05:10:36;3.30;99.90
15013;DHT22;7603;49.432;11.418;2023-12-20T05:13:02;3.30;99.90
15013;DHT22;7603;49.432;11.418;2023-12-20T05:15:28;3.40;99.90
15013;DHT22;7603;49.432;11.418;2023-12-20T05:17:53;3.40;99.90
15013;DHT22;7603;49.432;11.418;2023-12-20T05:20:19;3.40;99.90
15013;DHT22;7603;49.432;11.418;2023-12-20T05:22:44;3.40;99.90
15013;DHT22;7603;49.432;11.418;2023-12-20T05:25:10;3.40;99.90
15013;DHT22;7603;49.432;11.418;2023-12-20T05:27:36;3.40;99.90
15013;DHT22;7603;49.432;11.418;2023-12-20T05:30:02;3.40;99.90
15013;DHT22;7603;49.432;11.418;2023-12-20T05:32:30;3.40;99.90
15013;DHT22;7603;49.432;11.418;2023-12-20T05:34:55;3.50;99.90
15013;DHT22;7603;49.432;11.418;2023-12-20T05:37:21;3.40;99.90
15013;DHT22;7603;49.432;11.418;2023-12-20T05:39:46;3.40;99.90
15013;DHT22;7603;49.432;11.418;2023-12-20T05:42:12;3.40;99.90
15013;DHT22;7603;49.432;11.418;2023-12-20T05:44:38;3.40;99.90
15013;DHT22;7603;49.432;11.418;2023-12-20T05:47:03;3.40;99.90
15013;DHT22;7603;49.432;11.418;2023-12-20T05:49:29;3.40;99.90
15013;DHT22;7603;49.432;11.418;2023-12-20T05:51:55;3.40;99.90
15013;DHT22;7603;49.432;11.418;2023-12-20T05:54:21;3.40;99.90
15013;DHT22;7603;49.432;11.418;2023-12-20T05:56:47;3.40;99.90
15013;DHT22;7603;49.432;11.418;2023-12-20T05:59:12;3.40;99.90
15013;DHT22;7603;49.432;11.418;2023-12-20T06:01:39;3.30;99.90
15013;DHT22;7603;49.432;11.418;2023-12-20T06:04:04;3.40;99.90
15013;DHT22;7603;49.432;11.418;2023-12-20T06:06:30;3.40;99.90
15013;DHT22;7603;49.432;11.418;2023-12-20T06:08:56;3.40;99.90
15013;DHT22;7603;49.432;11.418;2023-12-20T06:11:21;3.40;99.90
15013;DHT22;7603;49.432;11.418;2023-12-20T06:13:47;3.40;99.90
15013;DHT22;7603;49.432;11.418;2023-12-20T06:16:14;3.50;99.90
15013;DHT22;7603;49.432;11.418;2023-12-20T06:18:40;3.40;99.90
15013;DHT22;7603;49.432;11.418;2023-12-20T06:21:06;3.40;99.90
15013;DHT22;7603;49.432;11.418;2023-12-20T06:23:33;3.40;99.90
15013;DHT22;7603;49.432;11.418;2023-12-20T06:25:58;3.40;99.90
15013;DHT22;7603;49.432;11.418;2023-12-20T06:28:24;3.40;99.90
15013;DHT22;7603;49.432;11.418;2023-12-20T06:30:50;3.50;99.90
15013;DHT22;7603;49.432;11.418;2023-12-20T06:33:17;3.50;99.90
15013;DHT22;7603;49.432;11.418;2023-12-20T06:35:44;3.50;99.90
15013;DHT22;7603;49.432;11.418;2023-12-20T06:38:09;3.50;99.90
15013;DHT22;7603;49.432;11.418;2023-12-20T06:40:35;3.50;99.90
15013;DHT22;7603;49.432;11.418;2023-12-20T06:43:01;3.50;99.90
15013;DHT22;7603;49.432;11.418;2023-12-20T06:45:26;3.50;99.90
15013;DHT22;7603;49.432;11.418;2023-12-20T06:47:52;3.50;99.90
15013;DHT22;7603;49.432;11.418;2023-12-20T06:50:17;3.50;99.90
15013;DHT22;7603;49.432;11.418;2023-12-20T06:52:43;3.50;99.90
15013;DHT22;7603;49.432;11.418;2023-12-20T06:55:09;3.50;99.90
15013;DHT22;7603;49.432;11.418;2023-12-20T06:57:34;3.60;99.90
15013;DHT22;7603;49.432;11.418;2023-12-20T07:00:02;3.60;99.90
15013;DHT22;7603;49.432;11.418;2023-12-20T07:02:28;3.60;99.90
15013;DHT22;7603;49.432;11.418;2023-12-20T07:04:55;3.60;99.90
15013;DHT22;7603;49.432;11.418;2023-12-20T07:07:21;3.60;99.90
15013;DHT22;7603;49.432;11.418;2023-12-20T07:09:48;3.60;99.90
15013;DHT22;7603;49.432;11.418;2023-12-20T07:12:14;3.60;99.90
15013;DHT22;7603;49.432;11.418;2023-12-20T07:14:40;3.60;99.90
15013;DHT22;7603;49.432;11.418;2023-12-20T07:17:06;3.60;99.90
15013;DHT22;7603;49.432;11.418;2023-12-20T07:19:37;3.70;99.90
15013;DHT22;7603;49.432;11.418;2023-12-20T07:22:04;3.70;99.90
15013;DHT22;7603;49.432;11.418;2023-12-20T07:24:30;3.70;99.90
15013;DHT22;7603;49.432;11.418;2023-12-20T07:26:55;3.70;99.90
15013;DHT22;7603;49.432;11.418;2023-12-20T07:29:21;3.80;99.90
15013;DHT22;7603;49.432;11.418;2023-12-20T07:31:46;3.70;99.90
15013;DHT22;7603;49.432;11.418;2023-12-20T07:34:12;3.80;99.90
15013;DHT22;7603;49.432;11.418;2023-12-20T07:36:38;3.80;99.90
15013;DHT22;7603;49.432;11.418;2023-12-20T07:39:03;3.80;99.90
15013;DHT22;7603;49.432;11.418;2023-12-20T07:41:29;3.70;99.90
15013;DHT22;7603;49.432;11.418;2023-12-20T07:43:55;3.80;99.90
15013;DHT22;7603;49.432;11.418;2023-12-20T07:46:22;3.80;99.90
15013;DHT22;7603;49.432;11.418;2023-12-20T07:48:50;3.80;99.90
15013;DHT22;7603;49.432;11.418;2023-12-20T07:51:16;3.90;99.90
15013;DHT22;7603;49.432;11.418;2023-12-20T07:53:41;3.90;99.90
15013;DHT22;7603;49.432;11.418;2023-12-20T07:56:17;3.90;99.90
15013;DHT22;7603;49.432;11.418;2023-12-20T07:58:43;3.90;99.90
15013;DHT22;7603;49.432;11.418;2023-12-20T08:01:11;3.90;99.90
15013;DHT22;7603;49.432;11.418;2023-12-20T08:03:37;3.90;99.90
15013;DHT22;7603;49.432;11.418;2023-12-20T08:06:03;4.00;99.90
15013;DHT22;7603;49.432;11.418;2023-12-20T08:08:29;4.00;99.90
15013;DHT22;7603;49.432;11.418;2023-12-20T08:10:55;4.00;99.90
15013;DHT22;7603;49.432;11.418;2023-12-20T08:13:23;4.00;99.90
15013;DHT22;7603;49.432;11.418;2023-12-20T08:15:51;4.00;99.90
15013;DHT22;7603;49.432;11.418;2023-12-20T08:18:17;4.00;99.90
15013;DHT22;7603;49.432;11.418;2023-12-20T08:20:43;4.10;99.90
15013;DHT22;7603;49.432;11.418;2023-12-20T08:23:08;4.10;99.90
15013;DHT22;7603;49.432;11.418;2023-12-20T08:25:34;4.10;99.90
15013;DHT22;7603;49.432;11.418;2023-12-20T08:28:00;4.10;99.90
15013;DHT22;7603;49.432;11.418;2023-12-20T08:30:26;4.10;99.90
15013;DHT22;7603;49.432;11.418;2023-12-20T08:32:52;4.10;99.90
15013;DHT22;7603;49.432;11.418;2023-12-20T08:35:17;4.10;99.90
15013;DHT22;7603;49.432;11.418;2023-12-20T08:37:44;4.20;99.90
15013;DHT22;7603;49.432;11.418;2023-12-20T08:40:10;4.20;99.90
15013;DHT22;7603;49.432;11.418;2023-12-20T08:42:35;4.30;99.90
15013;DHT22;7603;49.432;11.418;2023-12-20T08:45:02;4.30;99.90
15013;DHT22;7603;49.432;11.418;2023-12-20T08:47:29;4.40;99.90
15013;DHT22;7603;49.432;11.418;2023-12-20T08:49:55;4.40;99.90
15013;DHT22;7603;49.432;11.418;2023-12-20T08:52:23;4.40;99.90
15013;DHT22;7603;49.432;11.418;2023-12-20T08:54:50;4.30;99.90
15013;DHT22;7603;49.432;11.418;2023-12-20T08:57:19;4.30;99.90
15013;DHT22;7603;49.432;11.418;2023-12-20T08:59:44;4.30;99.90
15013;DHT22;7603;49.432;11.418;2023-12-20T09:02:10;4.20;99.90
15013;DHT22;7603;49.432;11.418;2023-12-20T09:04:35;4.30;99.90
15013;DHT22;7603;49.432;11.418;2023-12-20T09:07:01;4.20;99.90
15013;DHT22;7603;49.432;11.418;2023-12-20T09:09:27;4.20;99.90
15013;DHT22;7603;49.432;11.418;2023-12-20T09:11:52;4.20;99.90
15013;DHT22;7603;49.432;11.418;2023-12-20T09:14:18;4.20;99.90
15013;DHT22;7603;49.432;11.418;2023-12-20T09:16:44;4.20;99.90
15013;DHT22;7603;49.432;11.418;2023-12-20T09:19:10;4.20;99.90
15013;DHT22;7603;49.432;11.418;2023-12-20T09:21:35;4.30;99.90
15013;DHT22;7603;49.432;11.418;2023-12-20T09:24:01;4.30;99.90
15013;DHT22;7603;49.432;11.418;2023-12-20T09:26:26;4.50;99.90
15013;DHT22;7603;49.432;11.418;2023-12-20T09:28:52;4.50;99.90
15013;DHT22;7603;49.432;11.418;2023-12-20T09:31:18;4.60;99.90
15013;DHT22;7603;49.432;11.418;2023-12-20T09:33:43;4.70;99.90
15013;DHT22;7603;49.432;11.418;2023-12-20T09:36:09;4.80;99.90
15013;DHT22;7603;49.432;11.418;2023-12-20T09:38:34;5.20;99.90
15013;DHT22;7603;49.432;11.418;2023-12-20T09:41:00;5.70;99.90
15013;DHT22;7603;49.432;11.418;2023-12-20T09:43:29;6.00;99.90
15013;DHT22;7603;49.432;11.418;2023-12-20T09:46:00;6.10;99.90
15013;DHT22;7603;49.432;11.418;2023-12-20T09:48:27;5.90;99.90
15013;DHT22;7603;49.432;11.418;2023-12-20T09:50:54;5.80;99.90
15013;DHT22;7603;49.432;11.418;2023-12-20T09:53:21;5.90;99.90
15013;DHT22;7603;49.432;11.418;2023-12-20T09:55:48;6.40;99.90
15013;DHT22;7603;49.432;11.418;2023-12-20T09:58:15;6.90;99.90
15013;DHT22;7603;49.432;11.418;2023-12-20T10:00:40;7.10;99.90
15013;DHT22;7603;49.432;11.418;2023-12-20T10:03:06;7.20;99.90
15013;DHT22;7603;49.432;11.418;2023-12-20T10:05:33;7.50;99.90
15013;DHT22;7603;49.432;11.418;2023-12-20T10:08:00;7.70;99.90
15013;DHT22;7603;49.432;11.418;2023-12-20T10:10:26;8.10;99.90
15013;DHT22;7603;49.432;11.418;2023-12-20T10:15:28;9.30;99.90
15013;DHT22;7603;49.432;11.418;2023-12-20T10:17:54;9.70;99.90
15013;DHT22;7603;49.432;11.418;2023-12-20T10:20:20;9.60;99.90
15013;DHT22;7603;49.432;11.418;2023-12-20T10:22:46;9.30;99.90
15013;DHT22;7603;49.432;11.418;2023-12-20T10:25:12;8.80;99.90
15013;DHT22;7603;49.432;11.418;2023-12-20T10:27:38;8.40;99.90
15013;DHT22;7603;49.432;11.418;2023-12-20T10:30:04;8.10;99.90
15013;DHT22;7603;49.432;11.418;2023-12-20T10:32:30;7.90;99.90
15013;DHT22;7603;49.432;11.418;2023-12-20T10:34:57;7.50;99.90
15013;DHT22;7603;49.432;11.418;2023-12-20T10:37:23;7.20;99.90
15013;DHT22;7603;49.432;11.418;2023-12-20T10:39:53;6.80;99.90
15013;DHT22;7603;49.432;11.418;2023-12-20T10:42:22;6.60;99.90
15013;DHT22;7603;49.432;11.418;2023-12-20T10:44:49;6.30;99.90
15013;DHT22;7603;49.432;11.418;2023-12-20T10:47:17;6.20;99.90
15013;DHT22;7603;49.432;11.418;2023-12-20T10:49:43;6.00;99.90
15013;DHT22;7603;49.432;11.418;2023-12-20T10:52:11;6.00;99.90
15013;DHT22;7603;49.432;11.418;2023-12-20T10:54:38;6.00;99.90
15013;DHT22;7603;49.432;11.418;2023-12-20T10:57:05;6.00;99.90
15013;DHT22;7603;49.432;11.418;2023-12-20T10:59:33;6.00;99.90
15013;DHT22;7603;49.432;11.418;2023-12-20T11:02:02;5.90;99.90
15013;DHT22;7603;49.432;11.418;2023-12-20T11:04:59;5.80;99.90
15013;DHT22;7603;49.432;11.418;2023-12-20T11:07:46;5.70;99.90
15013;DHT22;7603;49.432;11.418;2023-12-20T11:10:31;5.70;99.90
15013;DHT22;7603;49.432;11.418;2023-12-20T11:13:20;5.70;99.90
15013;DHT22;7603;49.432;11.418;2023-12-20T11:15:47;5.70;99.90
15013;DHT22;7603;49.432;11.418;2023-12-20T11:18:12;5.60;99.90
15013;DHT22;7603;49.432;11.418;2023-12-20T11:20:39;5.50;99.90
15013;DHT22;7603;49.432;11.418;2023-12-20T11:23:08;5.40;99.90
15013;DHT22;7603;49.432;11.418;2023-12-20T11:25:47;5.30;99.90
15013;DHT22;7603;49.432;11.418;2023-12-20T11:28:13;5.10;99.90
15013;DHT22;7603;49.432;11.418;2023-12-20T11:30:42;4.90;99.90
15013;DHT22;7603;49.432;11.418;2023-12-20T11:33:08;4.90;99.90
15013;DHT22;7603;49.432;11.418;2023-12-20T11:35:34;4.90;99.90
15013;DHT22;7603;49.432;11.418;2023-12-20T11:38:02;4.90;99.90
15013;DHT22;7603;49.432;11.418;2023-12-20T11:40:27;5.00;99.90
15013;DHT22;7603;49.432;11.418;2023-12-20T11:42:53;5.10;99.90
15013;DHT22;7603;49.432;11.418;2023-12-20T11:45:24;5.20;99.90
15013;DHT22;7603;49.432;11.418;2023-12-20T11:47:51;5.20;99.90
15013;DHT22;7603;49.432;11.418;2023-12-20T11:50:19;5.30;99.90
15013;DHT22;7603;49.432;11.418;2023-12-20T11:52:44;5.30;99.90
15013;DHT22;7603;49.432;11.418;2023-12-20T11:55:10;5.30;99.90
15013;DHT22;7603;49.432;11.418;2023-12-20T11:57:36;5.30;99.90
15013;DHT22;7603;49.432;11.418;2023-12-20T12:00:05;5.20;99.90
15013;DHT22;7603;49.432;11.418;2023-12-20T12:02:32;5.20;99.90
15013;DHT22;7603;49.432;11.418;2023-12-20T12:04:59;5.20;99.90
15013;DHT22;7603;49.432;11.418;2023-12-20T12:07:25;5.20;99.90
15013;DHT22;7603;49.432;11.418;2023-12-20T12:09:50;5.20;99.90
15013;DHT22;7603;49.432;11.418;2023-12-20T12:12:17;5.20;99.90
15013;DHT22;7603;49.432;11.418;2023-12-20T12:14:44;5.20;99.90
15013;DHT22;7603;49.432;11.418;2023-12-20T12:17:14;5.20;99.90
15013;DHT22;7603;49.432;11.418;2023-12-20T12:19:40;5.20;99.90
15013;DHT22;7603;49.432;11.418;2023-12-20T12:22:08;5.10;99.90
15013;DHT22;7603;49.432;11.418;2023-12-20T12:24:36;5.10;99.90
15013;DHT22;7603;49.432;11.418;2023-12-20T12:27:08;5.00;99.90
15013;DHT22;7603;49.432;11.418;2023-12-20T12:29:35;5.00;99.90
15013;DHT22;7603;49.432;11.418;2023-12-20T12:32:04;4.90;99.90
15013;DHT22;7603;49.432;11.418;2023-12-20T12:34:30;4.70;99.90
15013;DHT22;7603;49.432;11.418;2023-12-20T12:36:56;4.70;99.90
15013;DHT22;7603;49.432;11.418;2023-12-20T12:39:24;4.70;99.90
15013;DHT22;7603;49.432;11.418;2023-12-20T12:41:53;4.70;99.90
15013;DHT22;7603;49.432;11.418;2023-12-20T12:44:19;4.60;99.90
15013;DHT22;7603;49.432;11.418;2023-12-20T12:46:46;4.50;99.90
15013;DHT22;7603;49.432;11.418;2023-12-20T12:49:12;4.60;99.90
15013;DHT22;7603;49.432;11.418;2023-12-20T12:51:37;4.60;99.90
15013;DHT22;7603;49.432;11.418;2023-12-20T12:54:03;4.60;99.90
15013;DHT22;7603;49.432;11.418;2023-12-20T12:56:29;4.60;99.90
15013;DHT22;7603;49.432;11.418;2023-12-20T12:58:55;4.70;99.90
15013;DHT22;7603;49.432;11.418;2023-12-20T13:01:21;4.80;99.90
15013;DHT22;7603;49.432;11.418;2023-12-20T13:03:46;4.90;99.90
15013;DHT22;7603;49.432;11.418;2023-12-20T13:06:12;4.90;99.90
15013;DHT22;7603;49.432;11.418;2023-12-20T13:08:38;4.90;99.90
15013;DHT22;7603;49.432;11.418;2023-12-20T13:11:04;4.90;99.90
15013;DHT22;7603;49.432;11.418;2023-12-20T13:13:30;4.90;99.90
15013;DHT22;7603;49.432;11.418;2023-12-20T13:15:56;4.90;99.90
15013;DHT22;7603;49.432;11.418;2023-12-20T13:18:25;4.90;99.90
15013;DHT22;7603;49.432;11.418;2023-12-20T13:20:50;4.80;99.90
15013;DHT22;7603;49.432;11.418;2023-12-20T13:23:16;4.80;99.90
15013;DHT22;7603;49.432;11.418;2023-12-20T13:25:44;4.80;99.90
15013;DHT22;7603;49.432;11.418;2023-12-20T13:28:12;4.80;99.90
15013;DHT22;7603;49.432;11.418;2023-12-20T13:30:39;4.80;99.90
15013;DHT22;7603;49.432;11.418;2023-12-20T13:33:05;4.80;99.90
15013;DHT22;7603;49.432;11.418;2023-12-20T13:35:31;4.90;99.90
15013;DHT22;7603;49.432;11.418;2023-12-20T13:37:58;5.00;99.90
15013;DHT22;7603;49.432;11.418;2023-12-20T13:40:23;5.00;99.90
15013;DHT22;7603;49.432;11.418;2023-12-20T13:42:49;5.10;99.90
15013;DHT22;7603;49.432;11.418;2023-12-20T13:45:15;5.20;99.90
15013;DHT22;7603;49.432;11.418;2023-12-20T13:47:40;5.60;99.90
15013;DHT22;7603;49.432;11.418;2023-12-20T13:50:06;6.20;99.90
15013;DHT22;7603;49.432;11.418;2023-12-20T13:52:32;6.60;99.90
15013;DHT22;7603;49.432;11.418;2023-12-20T13:54:58;6.60;99.90
15013;DHT22;7603;49.432;11.418;2023-12-20T13:57:23;6.30;99.90
15013;DHT22;7603;49.432;11.418;2023-12-20T13:59:49;6.00;99.90
15013;DHT22;7603;49.432;11.418;2023-12-20T14:02:14;5.80;99.90
15013;DHT22;7603;49.432;11.418;2023-12-20T14:04:42;5.60;99.90
15013;DHT22;7603;49.432;11.418;2023-12-20T14:07:08;5.50;99.90
15013;DHT22;7603;49.432;11.418;2023-12-20T14:09:34;5.40;99.90
15013;DHT22;7603;49.432;11.418;2023-12-20T14:12:00;5.30;99.90
15013;DHT22;7603;49.432;11.418;2023-12-20T14:14:26;5.20;99.90
15013;DHT22;7603;49.432;11.418;2023-12-20T14:16:51;5.10;99.90
15013;DHT22;7603;49.432;11.418;2023-12-20T14:19:17;5.10;99.90
15013;DHT22;7603;49.432;11.418;2023-12-20T14:21:43;5.00;99.90
15013;DHT22;7603;49.432;11.418;2023-12-20T14:24:12;4.90;99.90
15013;DHT22;7603;49.432;11.418;2023-12-20T14:26:40;4.80;99.90
15013;DHT22;7603;49.432;11.418;2023-12-20T14:29:06;4.80;99.90
15013;DHT22;7603;49.432;11.418;2023-12-20T14:31:33;4.70;99.90
15013;DHT22;7603;49.432;11.418;2023-12-20T14:33:58;4.70;99.90
15013;DHT22;7603;49.432;11.418;2023-12-20T14:36:25;4.70;99.90
15013;DHT22;7603;49.432;11.418;2023-12-20T14:38:50;4.70;99.90
15013;DHT22;7603;49.432;11.418;2023-12-20T14:41:16;4.60;99.90
15013;DHT22;7603;49.432;11.418;2023-12-20T14:43:44;4.60;99.90
15013;DHT22;7603;49.432;11.418;2023-12-20T14:46:10;4.60;99.90
15013;DHT22;7603;49.432;11.418;2023-12-20T14:48:36;4.60;99.90
15013;DHT22;7603;49.432;11.418;2023-12-20T14:51:01;4.60;99.90
15013;DHT22;7603;49.432;11.418;2023-12-20T14:53:27;4.60;99.90
15013;DHT22;7603;49.432;11.418;2023-12-20T14:55:52;4.60;99.90
15013;DHT22;7603;49.432;11.418;2023-12-20T14:58:18;4.60;99.90
15013;DHT22;7603;49.432;11.418;2023-12-20T15:00:44;4.50;99.90
15013;DHT22;7603;49.432;11.418;2023-12-20T15:03:10;4.50;99.90
15013;DHT22;7603;49.432;11.418;2023-12-20T15:05:36;4.50;99.90
15013;DHT22;7603;49.432;11.418;2023-12-20T15:08:02;4.50;99.90
15013;DHT22;7603;49.432;11.418;2023-12-20T15:10:28;4.40;99.90
15013;DHT22;7603;49.432;11.418;2023-12-20T15:12:53;4.50;99.90
15013;DHT22;7603;49.432;11.418;2023-12-20T15:15:21;4.50;99.90
15013;DHT22;7603;49.432;11.418;2023-12-20T15:17:47;4.50;99.90
15013;DHT22;7603;49.432;11.418;2023-12-20T15:20:13;4.40;99.90
15013;DHT22;7603;49.432;11.418;2023-12-20T15:22:39;4.40;99.90
15013;DHT22;7603;49.432;11.418;2023-12-20T15:25:06;4.40;99.90
15013;DHT22;7603;49.432;11.418;2023-12-20T15:27:35;4.40;99.90
15013;DHT22;7603;49.432;11.418;2023-12-20T15:30:03;4.40;99.90
15013;DHT22;7603;49.432;11.418;2023-12-20T15:32:29;4.30;99.90
15013;DHT22;7603;49.432;11.418;2023-12-20T15:34:54;4.30;99.90
15013;DHT22;7603;49.432;11.418;2023-12-20T15:37:21;4.40;99.90
15013;DHT22;7603;49.432;11.418;2023-12-20T15:39:47;4.40;99.90
15013;DHT22;7603;49.432;11.418;2023-12-20T15:42:12;4.30;99.90